sensor_id;sensor_type;location;lat;lon;timestamp;P1;durP1;ratioP1;P2;durP2;ratioP2
18090;SDS011;9172;49.948;9.208;2023-07-13T00:01:49;1.90;;;1.03;;
18090;SDS011;9172;49.948;9.208;2023-07-13T00:04:19;3.73;;;1.67;;
18090;SDS011;9172;49.948;9.208;2023-07-13T00:06:51;2.63;;;0.93;;
18090;SDS011;9172;49.948;9.208;2023-07-13T00:11:57;3.07;;;0.90;;
18090;SDS011;9172;49.948;9.208;2023-07-13T00:14:26;2.67;;;1.10;;
18090;SDS011;9172;49.948;9.208;2023-07-13T00:16:57;4.27;;;1.00;;
18090;SDS011;9172;49.948;9.208;2023-07-13T00:19:27;1.80;;;0.90;;
18090;SDS011;9172;49.948;9.208;2023-07-13T00:21:56;1.33;;;0.80;;
18090;SDS011;9172;49.948;9.208;2023-07-13T00:24:24;0.97;;;0.77;;
18090;SDS011;9172;49.948;9.208;2023-07-13T00:26:54;2.27;;;0.90;;
18090;SDS011;9172;49.948;9.208;2023-07-13T00:29:23;6.17;;;0.90;;
18090;SDS011;9172;49.948;9.208;2023-07-13T00:31:53;1.23;;;0.80;;
18090;SDS011;9172;49.948;9.208;2023-07-13T00:34:23;2.67;;;1.07;;
18090;SDS011;9172;49.948;9.208;2023-07-13T00:36:53;3.83;;;0.90;;
18090;SDS011;9172;49.948;9.208;2023-07-13T00:39:22;1.40;;;0.80;;
18090;SDS011;9172;49.948;9.208;2023-07-13T00:41:52;2.13;;;0.90;;
18090;SDS011;9172;49.948;9.208;2023-07-13T00:44:20;3.77;;;1.10;;
18090;SDS011;9172;49.948;9.208;2023-07-13T00:46:51;1.73;;;1.00;;
18090;SDS011;9172;49.948;9.208;2023-07-13T00:49:23;2.63;;;0.93;;
18090;SDS011;9172;49.948;9.208;2023-07-13T00:51:55;1.57;;;0.83;;
18090;SDS011;9172;49.948;9.208;2023-07-13T00:54:27;1.67;;;1.00;;
18090;SDS011;9172;49.948;9.208;2023-07-13T00:56:59;2.60;;;1.00;;
18090;SDS011;9172;49.948;9.208;2023-07-13T00:59:30;2.50;;;1.00;;
18090;SDS011;9172;49.948;9.208;2023-07-13T01:02:02;6.27;;;1.20;;
18090;SDS011;9172;49.948;9.208;2023-07-13T01:04:31;2.47;;;1.03;;
18090;SDS011;9172;49.948;9.208;2023-07-13T01:07:00;1.30;;;0.90;;
18090;SDS011;9172;49.948;9.208;2023-07-13T01:09:28;4.67;;;1.23;;
18090;SDS011;9172;49.948;9.208;2023-07-13T01:11:57;4.97;;;1.00;;
18090;SDS011;9172;49.948;9.208;2023-07-13T01:14:26;1.40;;;1.07;;
18090;SDS011;9172;49.948;9.208;2023-07-13T01:16:54;1.83;;;1.10;;
18090;SDS011;9172;49.948;9.208;2023-07-13T01:19:28;2.90;;;1.00;;
18090;SDS011;9172;49.948;9.208;2023-07-13T01:22:02;1.80;;;0.90;;
18090;SDS011;9172;49.948;9.208;2023-07-13T01:24:34;2.53;;;0.87;;
18090;SDS011;9172;49.948;9.208;2023-07-13T01:27:05;2.70;;;1.10;;
18090;SDS011;9172;49.948;9.208;2023-07-13T01:29:36;3.97;;;1.27;;
18090;SDS011;9172;49.948;9.208;2023-07-13T01:32:08;2.43;;;1.33;;
18090;SDS011;9172;49.948;9.208;2023-07-13T01:34:37;3.67;;;1.07;;
18090;SDS011;9172;49.948;9.208;2023-07-13T01:37:08;2.70;;;1.00;;
18090;SDS011;9172;49.948;9.208;2023-07-13T01:39:38;2.00;;;0.80;;
18090;SDS011;9172;49.948;9.208;2023-07-13T01:42:08;1.23;;;1.10;;
18090;SDS011;9172;49.948;9.208;2023-07-13T01:44:36;2.00;;;0.90;;
18090;SDS011;9172;49.948;9.208;2023-07-13T01:47:06;4.23;;;1.10;;
18090;SDS011;9172;49.948;9.208;2023-07-13T01:49:34;1.90;;;0.87;;
18090;SDS011;9172;49.948;9.208;2023-07-13T01:52:05;2.33;;;0.93;;
18090;SDS011;9172;49.948;9.208;2023-07-13T01:54:34;2.67;;;1.10;;
18090;SDS011;9172;49.948;9.208;2023-07-13T01:57:05;2.07;;;1.10;;
18090;SDS011;9172;49.948;9.208;2023-07-13T01:59:33;1.73;;;0.93;;
18090;SDS011;9172;49.948;9.208;2023-07-13T02:02:02;2.07;;;1.20;;
18090;SDS011;9172;49.948;9.208;2023-07-13T02:04:31;1.33;;;0.93;;
18090;SDS011;9172;49.948;9.208;2023-07-13T02:07:00;1.50;;;0.93;;
18090;SDS011;9172;49.948;9.208;2023-07-13T02:09:30;1.30;;;0.93;;
18090;SDS011;9172;49.948;9.208;2023-07-13T02:12:00;6.33;;;1.13;;
18090;SDS011;9172;49.948;9.208;2023-07-13T02:14:29;2.77;;;1.23;;
18090;SDS011;9172;49.948;9.208;2023-07-13T02:16:58;2.17;;;1.07;;
18090;SDS011;9172;49.948;9.208;2023-07-13T02:19:27;2.80;;;1.50;;
18090;SDS011;9172;49.948;9.208;2023-07-13T02:21:55;2.00;;;1.00;;
18090;SDS011;9172;49.948;9.208;2023-07-13T02:24:25;1.77;;;1.10;;
18090;SDS011;9172;49.948;9.208;2023-07-13T02:26:54;3.70;;;1.33;;
18090;SDS011;9172;49.948;9.208;2023-07-13T02:29:24;3.53;;;1.30;;
18090;SDS011;9172;49.948;9.208;2023-07-13T02:31:53;4.13;;;1.60;;
18090;SDS011;9172;49.948;9.208;2023-07-13T02:34:23;1.50;;;0.93;;
18090;SDS011;9172;49.948;9.208;2023-07-13T02:36:53;3.70;;;1.10;;
18090;SDS011;9172;49.948;9.208;2023-07-13T02:39:21;2.50;;;1.10;;
18090;SDS011;9172;49.948;9.208;2023-07-13T02:41:51;2.20;;;1.33;;
18090;SDS011;9172;49.948;9.208;2023-07-13T02:44:19;2.63;;;1.07;;
18090;SDS011;9172;49.948;9.208;2023-07-13T02:46:48;6.13;;;1.37;;
18090;SDS011;9172;49.948;9.208;2023-07-13T02:49:18;2.37;;;1.10;;
18090;SDS011;9172;49.948;9.208;2023-07-13T02:51:47;8.17;;;1.20;;
18090;SDS011;9172;49.948;9.208;2023-07-13T02:54:18;2.07;;;1.10;;
18090;SDS011;9172;49.948;9.208;2023-07-13T02:56:47;5.60;;;1.63;;
18090;SDS011;9172;49.948;9.208;2023-07-13T02:59:17;5.87;;;1.63;;
18090;SDS011;9172;49.948;9.208;2023-07-13T03:01:45;2.30;;;1.27;;
18090;SDS011;9172;49.948;9.208;2023-07-13T03:04:14;6.17;;;1.63;;
18090;SDS011;9172;49.948;9.208;2023-07-13T03:06:44;3.23;;;1.53;;
18090;SDS011;9172;49.948;9.208;2023-07-13T03:09:13;3.13;;;1.30;;
18090;SDS011;9172;49.948;9.208;2023-07-13T03:11:42;4.17;;;1.07;;
18090;SDS011;9172;49.948;9.208;2023-07-13T03:14:12;3.30;;;1.47;;
18090;SDS011;9172;49.948;9.208;2023-07-13T03:16:41;2.10;;;1.20;;
18090;SDS011;9172;49.948;9.208;2023-07-13T03:19:10;4.27;;;1.60;;
18090;SDS011;9172;49.948;9.208;2023-07-13T03:21:39;4.33;;;1.17;;
18090;SDS011;9172;49.948;9.208;2023-07-13T03:24:07;3.00;;;1.10;;
18090;SDS011;9172;49.948;9.208;2023-07-13T03:26:36;3.50;;;1.50;;
18090;SDS011;9172;49.948;9.208;2023-07-13T03:29:05;3.73;;;1.10;;
18090;SDS011;9172;49.948;9.208;2023-07-13T03:31:34;6.53;;;1.30;;
18090;SDS011;9172;49.948;9.208;2023-07-13T03:34:03;2.93;;;1.27;;
18090;SDS011;9172;49.948;9.208;2023-07-13T03:36:34;2.37;;;1.40;;
18090;SDS011;9172;49.948;9.208;2023-07-13T03:39:03;10.97;;;4.50;;
18090;SDS011;9172;49.948;9.208;2023-07-13T03:41:34;13.00;;;5.43;;
18090;SDS011;9172;49.948;9.208;2023-07-13T03:44:03;18.87;;;9.93;;
18090;SDS011;9172;49.948;9.208;2023-07-13T03:46:33;24.83;;;11.63;;
18090;SDS011;9172;49.948;9.208;2023-07-13T03:49:01;19.47;;;9.77;;
18090;SDS011;9172;49.948;9.208;2023-07-13T03:51:31;14.93;;;7.63;;
18090;SDS011;9172;49.948;9.208;2023-07-13T03:54:00;16.00;;;7.47;;
18090;SDS011;9172;49.948;9.208;2023-07-13T03:56:30;16.97;;;7.93;;
18090;SDS011;9172;49.948;9.208;2023-07-13T03:59:00;11.50;;;5.60;;
18090;SDS011;9172;49.948;9.208;2023-07-13T04:01:30;5.43;;;2.93;;
18090;SDS011;9172;49.948;9.208;2023-07-13T04:04:00;6.73;;;2.70;;
18090;SDS011;9172;49.948;9.208;2023-07-13T04:06:29;7.27;;;2.33;;
18090;SDS011;9172;49.948;9.208;2023-07-13T04:09:00;7.57;;;3.03;;
18090;SDS011;9172;49.948;9.208;2023-07-13T04:11:34;5.27;;;2.03;;
18090;SDS011;9172;49.948;9.208;2023-07-13T04:14:04;3.90;;;2.00;;
18090;SDS011;9172;49.948;9.208;2023-07-13T04:16:33;3.03;;;1.87;;
18090;SDS011;9172;49.948;9.208;2023-07-13T04:19:01;5.40;;;2.23;;
18090;SDS011;9172;49.948;9.208;2023-07-13T04:21:30;6.13;;;2.13;;
18090;SDS011;9172;49.948;9.208;2023-07-13T04:23:59;4.10;;;2.00;;
18090;SDS011;9172;49.948;9.208;2023-07-13T04:26:29;4.97;;;2.33;;
18090;SDS011;9172;49.948;9.208;2023-07-13T04:28:58;4.33;;;1.80;;
18090;SDS011;9172;49.948;9.208;2023-07-13T04:31:26;2.63;;;1.50;;
18090;SDS011;9172;49.948;9.208;2023-07-13T04:33:55;3.63;;;1.37;;
18090;SDS011;9172;49.948;9.208;2023-07-13T04:36:23;4.33;;;1.60;;
18090;SDS011;9172;49.948;9.208;2023-07-13T04:38:53;2.83;;;1.53;;
18090;SDS011;9172;49.948;9.208;2023-07-13T04:41:21;1.40;;;1.03;;
18090;SDS011;9172;49.948;9.208;2023-07-13T04:43:51;5.70;;;1.40;;
18090;SDS011;9172;49.948;9.208;2023-07-13T04:46:20;2.57;;;1.00;;
18090;SDS011;9172;49.948;9.208;2023-07-13T04:48:48;2.63;;;1.30;;
18090;SDS011;9172;49.948;9.208;2023-07-13T04:51:19;3.20;;;1.07;;
18090;SDS011;9172;49.948;9.208;2023-07-13T04:53:48;2.53;;;1.17;;
18090;SDS011;9172;49.948;9.208;2023-07-13T04:56:16;3.13;;;1.40;;
18090;SDS011;9172;49.948;9.208;2023-07-13T04:58:46;3.83;;;1.20;;
18090;SDS011;9172;49.948;9.208;2023-07-13T05:01:16;2.80;;;1.50;;
18090;SDS011;9172;49.948;9.208;2023-07-13T05:03:46;4.10;;;1.30;;
18090;SDS011;9172;49.948;9.208;2023-07-13T05:06:15;2.73;;;1.07;;
18090;SDS011;9172;49.948;9.208;2023-07-13T05:08:43;1.27;;;1.17;;
18090;SDS011;9172;49.948;9.208;2023-07-13T05:13:47;5.53;;;1.50;;
18090;SDS011;9172;49.948;9.208;2023-07-13T05:16:17;2.00;;;1.00;;
18090;SDS011;9172;49.948;9.208;2023-07-13T05:18:47;9.50;;;1.67;;
18090;SDS011;9172;49.948;9.208;2023-07-13T05:21:15;6.43;;;1.23;;
18090;SDS011;9172;49.948;9.208;2023-07-13T05:23:44;3.67;;;1.40;;
18090;SDS011;9172;49.948;9.208;2023-07-13T05:26:14;1.10;;;0.90;;
18090;SDS011;9172;49.948;9.208;2023-07-13T05:28:42;2.20;;;1.07;;
18090;SDS011;9172;49.948;9.208;2023-07-13T05:31:11;2.93;;;1.33;;
18090;SDS011;9172;49.948;9.208;2023-07-13T05:33:40;3.80;;;1.50;;
18090;SDS011;9172;49.948;9.208;2023-07-13T05:36:10;6.07;;;1.10;;
18090;SDS011;9172;49.948;9.208;2023-07-13T05:38:39;2.57;;;1.03;;
18090;SDS011;9172;49.948;9.208;2023-07-13T05:41:08;6.40;;;1.67;;
18090;SDS011;9172;49.948;9.208;2023-07-13T05:43:45;2.87;;;1.27;;
18090;SDS011;9172;49.948;9.208;2023-07-13T05:46:13;1.97;;;1.10;;
18090;SDS011;9172;49.948;9.208;2023-07-13T05:48:43;3.73;;;1.13;;
18090;SDS011;9172;49.948;9.208;2023-07-13T05:51:12;3.23;;;1.07;;
18090;SDS011;9172;49.948;9.208;2023-07-13T05:53:40;2.17;;;1.17;;
18090;SDS011;9172;49.948;9.208;2023-07-13T05:56:10;4.07;;;1.33;;
18090;SDS011;9172;49.948;9.208;2023-07-13T05:58:39;6.13;;;1.30;;
18090;SDS011;9172;49.948;9.208;2023-07-13T06:01:11;4.70;;;0.90;;
18090;SDS011;9172;49.948;9.208;2023-07-13T06:03:41;3.80;;;1.10;;
18090;SDS011;9172;49.948;9.208;2023-07-13T06:06:10;4.83;;;1.10;;
18090;SDS011;9172;49.948;9.208;2023-07-13T06:08:39;6.77;;;1.07;;
18090;SDS011;9172;49.948;9.208;2023-07-13T06:11:09;4.27;;;1.20;;
18090;SDS011;9172;49.948;9.208;2023-07-13T06:13:39;4.23;;;1.20;;
18090;SDS011;9172;49.948;9.208;2023-07-13T06:16:09;2.53;;;1.23;;
18090;SDS011;9172;49.948;9.208;2023-07-13T06:18:39;3.67;;;1.10;;
18090;SDS011;9172;49.948;9.208;2023-07-13T06:21:09;4.90;;;0.93;;
18090;SDS011;9172;49.948;9.208;2023-07-13T06:23:40;4.17;;;1.20;;
18090;SDS011;9172;49.948;9.208;2023-07-13T06:26:09;3.63;;;1.10;;
18090;SDS011;9172;49.948;9.208;2023-07-13T06:28:38;2.27;;;1.00;;
18090;SDS011;9172;49.948;9.208;2023-07-13T06:31:06;7.30;;;1.20;;
18090;SDS011;9172;49.948;9.208;2023-07-13T06:33:36;10.27;;;1.97;;
18090;SDS011;9172;49.948;9.208;2023-07-13T06:36:06;3.40;;;1.30;;
18090;SDS011;9172;49.948;9.208;2023-07-13T06:38:36;2.13;;;0.97;;
18090;SDS011;9172;49.948;9.208;2023-07-13T06:41:05;2.33;;;1.10;;
18090;SDS011;9172;49.948;9.208;2023-07-13T06:43:35;3.07;;;1.20;;
18090;SDS011;9172;49.948;9.208;2023-07-13T06:46:05;4.90;;;1.13;;
18090;SDS011;9172;49.948;9.208;2023-07-13T06:48:35;3.23;;;1.20;;
18090;SDS011;9172;49.948;9.208;2023-07-13T06:51:04;6.77;;;1.40;;
18090;SDS011;9172;49.948;9.208;2023-07-13T06:53:34;1.60;;;0.90;;
18090;SDS011;9172;49.948;9.208;2023-07-13T06:56:02;2.50;;;1.37;;
18090;SDS011;9172;49.948;9.208;2023-07-13T06:58:33;2.70;;;0.80;;
18090;SDS011;9172;49.948;9.208;2023-07-13T07:01:03;1.93;;;0.73;;
18090;SDS011;9172;49.948;9.208;2023-07-13T07:03:40;3.10;;;1.03;;
18090;SDS011;9172;49.948;9.208;2023-07-13T07:06:12;3.67;;;1.00;;
18090;SDS011;9172;49.948;9.208;2023-07-13T07:08:43;0.97;;;0.73;;
18090;SDS011;9172;49.948;9.208;2023-07-13T07:11:12;1.47;;;0.70;;
18090;SDS011;9172;49.948;9.208;2023-07-13T07:13:43;4.30;;;1.20;;
18090;SDS011;9172;49.948;9.208;2023-07-13T07:16:13;2.47;;;0.90;;
18090;SDS011;9172;49.948;9.208;2023-07-13T07:18:42;2.83;;;1.20;;
18090;SDS011;9172;49.948;9.208;2023-07-13T07:21:12;5.47;;;1.47;;
18090;SDS011;9172;49.948;9.208;2023-07-13T07:23:42;4.50;;;0.83;;
18090;SDS011;9172;49.948;9.208;2023-07-13T07:26:11;4.20;;;1.63;;
18090;SDS011;9172;49.948;9.208;2023-07-13T07:28:41;4.33;;;0.93;;
18090;SDS011;9172;49.948;9.208;2023-07-13T07:31:09;3.13;;;1.03;;
18090;SDS011;9172;49.948;9.208;2023-07-13T07:33:40;4.53;;;0.80;;
18090;SDS011;9172;49.948;9.208;2023-07-13T07:36:09;3.53;;;0.90;;
18090;SDS011;9172;49.948;9.208;2023-07-13T07:38:38;3.37;;;0.70;;
18090;SDS011;9172;49.948;9.208;2023-07-13T07:41:07;2.07;;;0.87;;
18090;SDS011;9172;49.948;9.208;2023-07-13T07:43:37;4.13;;;0.93;;
18090;SDS011;9172;49.948;9.208;2023-07-13T07:46:07;5.53;;;1.00;;
18090;SDS011;9172;49.948;9.208;2023-07-13T07:48:36;5.23;;;1.03;;
18090;SDS011;9172;49.948;9.208;2023-07-13T07:51:05;4.30;;;0.90;;
18090;SDS011;9172;49.948;9.208;2023-07-13T07:53:34;2.70;;;1.10;;
18090;SDS011;9172;49.948;9.208;2023-07-13T07:56:03;3.17;;;1.40;;
18090;SDS011;9172;49.948;9.208;2023-07-13T07:58:32;8.50;;;1.73;;
18090;SDS011;9172;49.948;9.208;2023-07-13T08:01:04;6.00;;;1.00;;
18090;SDS011;9172;49.948;9.208;2023-07-13T08:03:34;2.30;;;1.07;;
18090;SDS011;9172;49.948;9.208;2023-07-13T08:06:03;1.87;;;0.80;;
18090;SDS011;9172;49.948;9.208;2023-07-13T08:08:32;4.17;;;0.87;;
18090;SDS011;9172;49.948;9.208;2023-07-13T08:11:02;4.17;;;1.10;;
18090;SDS011;9172;49.948;9.208;2023-07-13T08:13:34;6.27;;;1.10;;
18090;SDS011;9172;49.948;9.208;2023-07-13T08:16:03;5.10;;;0.73;;
18090;SDS011;9172;49.948;9.208;2023-07-13T08:18:32;2.97;;;1.10;;
18090;SDS011;9172;49.948;9.208;2023-07-13T08:21:03;3.13;;;0.77;;
18090;SDS011;9172;49.948;9.208;2023-07-13T08:23:33;4.27;;;0.70;;
18090;SDS011;9172;49.948;9.208;2023-07-13T08:26:03;3.27;;;0.83;;
18090;SDS011;9172;49.948;9.208;2023-07-13T08:28:32;6.67;;;0.77;;
18090;SDS011;9172;49.948;9.208;2023-07-13T08:31:02;8.03;;;1.30;;
18090;SDS011;9172;49.948;9.208;2023-07-13T08:33:30;2.73;;;0.77;;
18090;SDS011;9172;49.948;9.208;2023-07-13T08:36:01;4.57;;;1.00;;
18090;SDS011;9172;49.948;9.208;2023-07-13T08:38:30;2.47;;;0.90;;
18090;SDS011;9172;49.948;9.208;2023-07-13T08:41:00;3.67;;;0.70;;
18090;SDS011;9172;49.948;9.208;2023-07-13T08:43:34;2.27;;;0.80;;
18090;SDS011;9172;49.948;9.208;2023-07-13T08:46:05;2.73;;;0.80;;
18090;SDS011;9172;49.948;9.208;2023-07-13T08:48:38;2.67;;;0.77;;
18090;SDS011;9172;49.948;9.208;2023-07-13T08:51:11;1.80;;;0.90;;
18090;SDS011;9172;49.948;9.208;2023-07-13T08:53:42;4.67;;;1.20;;
18090;SDS011;9172;49.948;9.208;2023-07-13T08:56:16;6.17;;;0.80;;
18090;SDS011;9172;49.948;9.208;2023-07-13T08:58:47;4.70;;;1.10;;
18090;SDS011;9172;49.948;9.208;2023-07-13T09:01:22;4.93;;;1.10;;
18090;SDS011;9172;49.948;9.208;2023-07-13T09:03:56;1.80;;;0.70;;
18090;SDS011;9172;49.948;9.208;2023-07-13T09:06:34;9.83;;;1.75;;
18090;SDS011;9172;49.948;9.208;2023-07-13T09:09:06;1.67;;;0.77;;
18090;SDS011;9172;49.948;9.208;2023-07-13T09:11:40;2.10;;;0.80;;
18090;SDS011;9172;49.948;9.208;2023-07-13T09:14:26;2.60;;;0.90;;
18090;SDS011;9172;49.948;9.208;2023-07-13T09:16:57;3.08;;;1.00;;
18090;SDS011;9172;49.948;9.208;2023-07-13T09:19:27;5.53;;;1.20;;
18090;SDS011;9172;49.948;9.208;2023-07-13T09:21:58;4.90;;;1.00;;
18090;SDS011;9172;49.948;9.208;2023-07-13T09:24:31;1.70;;;0.63;;
18090;SDS011;9172;49.948;9.208;2023-07-13T09:27:08;2.65;;;0.68;;
18090;SDS011;9172;49.948;9.208;2023-07-13T09:29:45;3.08;;;0.70;;
18090;SDS011;9172;49.948;9.208;2023-07-13T09:32:15;4.25;;;0.95;;
18090;SDS011;9172;49.948;9.208;2023-07-13T09:34:50;3.03;;;0.80;;
18090;SDS011;9172;49.948;9.208;2023-07-13T09:37:21;3.13;;;1.00;;
18090;SDS011;9172;49.948;9.208;2023-07-13T09:39:52;4.40;;;0.90;;
18090;SDS011;9172;49.948;9.208;2023-07-13T09:42:30;2.97;;;0.73;;
18090;SDS011;9172;49.948;9.208;2023-07-13T09:45:00;3.10;;;0.90;;
18090;SDS011;9172;49.948;9.208;2023-07-13T09:47:30;1.62;;;0.75;;
18090;SDS011;9172;49.948;9.208;2023-07-13T09:52:40;4.03;;;0.70;;
18090;SDS011;9172;49.948;9.208;2023-07-13T09:58:13;1.82;;;1.00;;
18090;SDS011;9172;49.948;9.208;2023-07-13T10:00:43;1.95;;;0.68;;
18090;SDS011;9172;49.948;9.208;2023-07-13T10:03:17;1.83;;;0.80;;
18090;SDS011;9172;49.948;9.208;2023-07-13T10:05:50;2.73;;;0.80;;
18090;SDS011;9172;49.948;9.208;2023-07-13T10:08:25;2.60;;;0.93;;
18090;SDS011;9172;49.948;9.208;2023-07-13T10:10:57;3.67;;;0.80;;
18090;SDS011;9172;49.948;9.208;2023-07-13T10:13:28;5.00;;;1.15;;
18090;SDS011;9172;49.948;9.208;2023-07-13T10:16:03;2.47;;;0.80;;
18090;SDS011;9172;49.948;9.208;2023-07-13T10:18:36;1.17;;;0.60;;
18090;SDS011;9172;49.948;9.208;2023-07-13T10:21:10;4.17;;;0.70;;
18090;SDS011;9172;49.948;9.208;2023-07-13T10:23:40;9.75;;;0.98;;
18090;SDS011;9172;49.948;9.208;2023-07-13T10:28:49;1.12;;;0.53;;
18090;SDS011;9172;49.948;9.208;2023-07-13T10:31:21;1.40;;;0.72;;
18090;SDS011;9172;49.948;9.208;2023-07-13T10:33:52;2.77;;;0.60;;
18090;SDS011;9172;49.948;9.208;2023-07-13T10:36:23;2.22;;;0.80;;
18090;SDS011;9172;49.948;9.208;2023-07-13T10:38:58;3.77;;;0.70;;
18090;SDS011;9172;49.948;9.208;2023-07-13T10:41:30;1.32;;;0.65;;
18090;SDS011;9172;49.948;9.208;2023-07-13T10:44:01;3.47;;;0.80;;
18090;SDS011;9172;49.948;9.208;2023-07-13T10:46:33;3.05;;;0.90;;
18090;SDS011;9172;49.948;9.208;2023-07-13T10:49:02;9.57;;;0.60;;
18090;SDS011;9172;49.948;9.208;2023-07-13T10:51:33;2.12;;;0.55;;
18090;SDS011;9172;49.948;9.208;2023-07-13T10:57:14;2.87;;;0.70;;
18090;SDS011;9172;49.948;9.208;2023-07-13T10:59:46;1.50;;;0.68;;
18090;SDS011;9172;49.948;9.208;2023-07-13T11:02:23;1.47;;;0.65;;
18090;SDS011;9172;49.948;9.208;2023-07-13T11:04:54;2.77;;;0.72;;
18090;SDS011;9172;49.948;9.208;2023-07-13T11:07:25;2.00;;;0.70;;
18090;SDS011;9172;49.948;9.208;2023-07-13T11:09:55;2.08;;;0.70;;
18090;SDS011;9172;49.948;9.208;2023-07-13T11:12:27;2.27;;;0.73;;
18090;SDS011;9172;49.948;9.208;2023-07-13T11:15:27;2.55;;;0.65;;
18090;SDS011;9172;49.948;9.208;2023-07-13T11:18:12;3.50;;;0.70;;
18090;SDS011;9172;49.948;9.208;2023-07-13T11:20:48;2.75;;;0.72;;
18090;SDS011;9172;49.948;9.208;2023-07-13T11:23:19;2.65;;;0.60;;
18090;SDS011;9172;49.948;9.208;2023-07-13T11:25:50;11.00;;;1.32;;
18090;SDS011;9172;49.948;9.208;2023-07-13T11:28:23;3.02;;;0.68;;
18090;SDS011;9172;49.948;9.208;2023-07-13T11:33:49;1.05;;;0.75;;
18090;SDS011;9172;49.948;9.208;2023-07-13T11:36:23;3.15;;;0.82;;
18090;SDS011;9172;49.948;9.208;2023-07-13T11:38:59;1.25;;;0.70;;
18090;SDS011;9172;49.948;9.208;2023-07-13T11:41:30;4.15;;;1.00;;
18090;SDS011;9172;49.948;9.208;2023-07-13T11:44:05;1.20;;;0.60;;
18090;SDS011;9172;49.948;9.208;2023-07-13T11:46:34;1.85;;;0.70;;
18090;SDS011;9172;49.948;9.208;2023-07-13T11:49:04;4.00;;;0.82;;
18090;SDS011;9172;49.948;9.208;2023-07-13T11:51:34;10.13;;;1.82;;
18090;SDS011;9172;49.948;9.208;2023-07-13T11:54:04;1.17;;;0.62;;
18090;SDS011;9172;49.948;9.208;2023-07-13T11:56:36;2.83;;;0.70;;
18090;SDS011;9172;49.948;9.208;2023-07-13T11:59:06;2.37;;;0.90;;
18090;SDS011;9172;49.948;9.208;2023-07-13T12:01:42;2.30;;;0.75;;
18090;SDS011;9172;49.948;9.208;2023-07-13T12:04:18;3.25;;;0.90;;
18090;SDS011;9172;49.948;9.208;2023-07-13T12:06:48;2.87;;;0.90;;
18090;SDS011;9172;49.948;9.208;2023-07-13T12:09:27;3.30;;;0.95;;
18090;SDS011;9172;49.948;9.208;2023-07-13T12:11:57;2.90;;;1.05;;
18090;SDS011;9172;49.948;9.208;2023-07-13T12:14:28;1.37;;;0.60;;
18090;SDS011;9172;49.948;9.208;2023-07-13T12:16:59;3.70;;;1.00;;
18090;SDS011;9172;49.948;9.208;2023-07-13T12:19:27;2.15;;;0.72;;
18090;SDS011;9172;49.948;9.208;2023-07-13T12:21:57;1.65;;;0.68;;
18090;SDS011;9172;49.948;9.208;2023-07-13T12:24:27;1.72;;;0.70;;
18090;SDS011;9172;49.948;9.208;2023-07-13T12:27:01;3.33;;;0.80;;
18090;SDS011;9172;49.948;9.208;2023-07-13T12:29:27;2.12;;;0.72;;
18090;SDS011;9172;49.948;9.208;2023-07-13T12:31:55;2.50;;;0.80;;
18090;SDS011;9172;49.948;9.208;2023-07-13T12:34:24;1.82;;;0.78;;
18090;SDS011;9172;49.948;9.208;2023-07-13T12:36:54;3.52;;;0.70;;
18090;SDS011;9172;49.948;9.208;2023-07-13T12:39:26;3.20;;;0.70;;
18090;SDS011;9172;49.948;9.208;2023-07-13T12:42:09;1.12;;;0.60;;
18090;SDS011;9172;49.948;9.208;2023-07-13T12:44:39;1.72;;;0.90;;
18090;SDS011;9172;49.948;9.208;2023-07-13T12:47:11;1.85;;;0.80;;
18090;SDS011;9172;49.948;9.208;2023-07-13T12:49:41;5.83;;;1.00;;
18090;SDS011;9172;49.948;9.208;2023-07-13T12:52:14;1.90;;;0.82;;
18090;SDS011;9172;49.948;9.208;2023-07-13T12:54:52;1.22;;;0.68;;
18090;SDS011;9172;49.948;9.208;2023-07-13T12:57:23;2.40;;;0.90;;
18090;SDS011;9172;49.948;9.208;2023-07-13T12:59:52;2.35;;;0.95;;
18090;SDS011;9172;49.948;9.208;2023-07-13T13:02:28;4.10;;;0.80;;
18090;SDS011;9172;49.948;9.208;2023-07-13T13:04:57;1.57;;;0.62;;
18090;SDS011;9172;49.948;9.208;2023-07-13T13:07:30;2.15;;;1.07;;
18090;SDS011;9172;49.948;9.208;2023-07-13T13:09:59;3.65;;;1.30;;
18090;SDS011;9172;49.948;9.208;2023-07-13T13:12:32;7.83;;;1.05;;
18090;SDS011;9172;49.948;9.208;2023-07-13T13:15:01;2.58;;;0.90;;
18090;SDS011;9172;49.948;9.208;2023-07-13T13:17:32;0.98;;;0.60;;
18090;SDS011;9172;49.948;9.208;2023-07-13T13:20:00;4.87;;;0.85;;
18090;SDS011;9172;49.948;9.208;2023-07-13T13:22:32;3.55;;;0.90;;
18090;SDS011;9172;49.948;9.208;2023-07-13T13:25:00;4.67;;;0.90;;
18090;SDS011;9172;49.948;9.208;2023-07-13T13:27:29;3.83;;;1.00;;
18090;SDS011;9172;49.948;9.208;2023-07-13T13:29:59;4.10;;;0.78;;
18090;SDS011;9172;49.948;9.208;2023-07-13T13:32:29;2.85;;;0.88;;
18090;SDS011;9172;49.948;9.208;2023-07-13T13:34:59;1.57;;;0.82;;
18090;SDS011;9172;49.948;9.208;2023-07-13T13:37:28;1.65;;;0.80;;
18090;SDS011;9172;49.948;9.208;2023-07-13T13:39:56;4.12;;;0.60;;
18090;SDS011;9172;49.948;9.208;2023-07-13T13:42:26;2.12;;;0.70;;
18090;SDS011;9172;49.948;9.208;2023-07-13T13:44:55;2.95;;;0.93;;
18090;SDS011;9172;49.948;9.208;2023-07-13T13:47:33;4.83;;;1.12;;
18090;SDS011;9172;49.948;9.208;2023-07-13T13:50:07;1.72;;;0.80;;
18090;SDS011;9172;49.948;9.208;2023-07-13T13:52:39;4.60;;;0.78;;
18090;SDS011;9172;49.948;9.208;2023-07-13T13:55:12;2.30;;;0.80;;
18090;SDS011;9172;49.948;9.208;2023-07-13T13:57:41;3.60;;;1.20;;
18090;SDS011;9172;49.948;9.208;2023-07-13T14:00:11;2.22;;;0.80;;
18090;SDS011;9172;49.948;9.208;2023-07-13T14:02:41;4.85;;;1.25;;
18090;SDS011;9172;49.948;9.208;2023-07-13T14:05:13;3.80;;;0.90;;
18090;SDS011;9172;49.948;9.208;2023-07-13T14:07:45;2.83;;;0.80;;
18090;SDS011;9172;49.948;9.208;2023-07-13T14:10:15;3.67;;;1.10;;
18090;SDS011;9172;49.948;9.208;2023-07-13T14:12:45;4.72;;;0.88;;
18090;SDS011;9172;49.948;9.208;2023-07-13T14:15:18;5.95;;;0.88;;
18090;SDS011;9172;49.948;9.208;2023-07-13T14:17:48;2.40;;;0.82;;
18090;SDS011;9172;49.948;9.208;2023-07-13T14:20:17;3.55;;;0.90;;
18090;SDS011;9172;49.948;9.208;2023-07-13T14:22:48;1.95;;;0.75;;
18090;SDS011;9172;49.948;9.208;2023-07-13T14:25:20;3.60;;;0.90;;
18090;SDS011;9172;49.948;9.208;2023-07-13T14:27:49;8.45;;;1.10;;
18090;SDS011;9172;49.948;9.208;2023-07-13T14:30:24;2.17;;;0.98;;
18090;SDS011;9172;49.948;9.208;2023-07-13T14:32:53;3.05;;;0.72;;
18090;SDS011;9172;49.948;9.208;2023-07-13T14:35:22;3.40;;;1.42;;
18090;SDS011;9172;49.948;9.208;2023-07-13T14:37:52;1.45;;;0.95;;
18090;SDS011;9172;49.948;9.208;2023-07-13T14:40:23;3.92;;;0.90;;
18090;SDS011;9172;49.948;9.208;2023-07-13T14:42:54;3.05;;;0.78;;
18090;SDS011;9172;49.948;9.208;2023-07-13T14:45:23;3.02;;;1.02;;
18090;SDS011;9172;49.948;9.208;2023-07-13T14:47:53;2.62;;;1.35;;
18090;SDS011;9172;49.948;9.208;2023-07-13T14:50:24;1.95;;;0.80;;
18090;SDS011;9172;49.948;9.208;2023-07-13T14:52:56;1.82;;;0.80;;
18090;SDS011;9172;49.948;9.208;2023-07-13T14:55:25;2.90;;;0.88;;
18090;SDS011;9172;49.948;9.208;2023-07-13T14:57:54;4.12;;;0.90;;
18090;SDS011;9172;49.948;9.208;2023-07-13T15:00:23;2.90;;;0.88;;
18090;SDS011;9172;49.948;9.208;2023-07-13T15:02:54;2.72;;;1.00;;
18090;SDS011;9172;49.948;9.208;2023-07-13T15:05:25;2.25;;;1.00;;
18090;SDS011;9172;49.948;9.208;2023-07-13T15:07:56;6.65;;;0.90;;
18090;SDS011;9172;49.948;9.208;2023-07-13T15:10:27;1.30;;;0.78;;
18090;SDS011;9172;49.948;9.208;2023-07-13T15:12:59;3.83;;;1.00;;
18090;SDS011;9172;49.948;9.208;2023-07-13T15:15:30;2.30;;;1.10;;
18090;SDS011;9172;49.948;9.208;2023-07-13T15:18:01;4.62;;;1.00;;
18090;SDS011;9172;49.948;9.208;2023-07-13T15:20:39;4.40;;;0.90;;
18090;SDS011;9172;49.948;9.208;2023-07-13T15:23:08;2.77;;;0.80;;
18090;SDS011;9172;49.948;9.208;2023-07-13T15:25:41;1.02;;;0.70;;
18090;SDS011;9172;49.948;9.208;2023-07-13T15:28:10;6.33;;;1.25;;
18090;SDS011;9172;49.948;9.208;2023-07-13T15:30:41;3.12;;;0.75;;
18090;SDS011;9172;49.948;9.208;2023-07-13T15:33:12;3.52;;;0.90;;
18090;SDS011;9172;49.948;9.208;2023-07-13T15:35:43;3.95;;;0.93;;
18090;SDS011;9172;49.948;9.208;2023-07-13T15:38:14;3.30;;;0.85;;
18090;SDS011;9172;49.948;9.208;2023-07-13T15:40:43;0.70;;;0.53;;